Time;durP1;ratioP1;P1;durP2;ratioP2;P2;SDS_P1;SDS_P2;PMS_P1;PMS_P2;Temp;Humidity;BMP_temperature;BMP_pressure;BME280_temperature;BME280_humidity;BME280_pressure;Samples;Min_cycle;Max_cycle;Signal;HPM_P1;HPM_P2
2023/07/08 00:00:09;;;;;;;;;;;23.80;56.20;;;;;;5056221;28;20339;-53
2023/07/08 00:02:35;;;;;;;;;;;23.80;56.10;;;;;;5058689;28;20284;-53
2023/07/08 00:05:00;;;;;;;;;;;23.80;56.20;;;;;;5057634;28;19912;-53
2023/07/08 00:07:25;;;;;;;;;;;23.80;56.30;;;;;;5057605;28;19964;-53
2023/07/08 00:09:51;;;;;;;;;;;23.80;56.20;;;;;;5052227;28;20364;-53
2023/07/08 00:12:16;;;;;;;;;;;23.80;56.20;;;;;;5052547;28;20392;-53
2023/07/08 00:14:42;;;;;;;;;;;23.80;56.30;;;;;;5070221;28;20372;-52
2023/07/08 00:17:12;;;;;;;;;;;23.70;56.20;;;;;;5071257;28;20328;-53
2023/07/08 00:19:37;;;;;;;;;;;23.80;56.20;;;;;;5057121;28;19916;-53
2023/07/08 00:22:07;;;;;;;;;;;23.70;56.20;;;;;;5070456;28;20215;-53
2023/07/08 00:24:32;;;;;;;;;;;23.70;56.10;;;;;;5055524;28;20277;-55
2023/07/08 00:26:58;;;;;;;;;;;23.80;56.20;;;;;;5052481;28;19913;-54
2023/07/08 00:29:23;;;;;;;;;;;23.80;56.30;;;;;;5051740;28;19920;-54
2023/07/08 00:31:49;;;;;;;;;;;23.70;56.20;;;;;;5052285;28;20039;-54
2023/07/08 00:34:15;;;;;;;;;;;23.80;56.30;;;;;;5063790;28;19958;-54
2023/07/08 00:36:41;;;;;;;;;;;23.70;56.20;;;;;;5064872;28;19923;-56
2023/07/08 00:39:12;;;;;;;;;;;23.80;56.30;;;;;;5059673;28;20301;-54
2023/07/08 00:41:41;;;;;;;;;;;23.70;56.30;;;;;;5059160;28;19956;-55
2023/07/08 00:44:07;;;;;;;;;;;23.70;56.30;;;;;;5070928;28;20442;-54
2023/07/08 00:46:45;;;;;;;;;;;23.70;56.20;;;;;;5064463;28;19921;-55
2023/07/08 00:49:11;;;;;;;;;;;23.70;56.30;;;;;;5070496;28;20003;-55
2023/07/08 00:51:40;;;;;;;;;;;23.80;56.30;;;;;;5068903;28;20356;-55
2023/07/08 00:54:12;;;;;;;;;;;23.70;56.30;;;;;;5060615;28;20368;-55
2023/07/08 00:56:39;;;;;;;;;;;23.70;56.30;;;;;;5057125;28;19912;-54
2023/07/08 00:59:06;;;;;;;;;;;23.70;56.30;;;;;;5058810;28;19913;-55
2023/07/08 01:01:34;;;;;;;;;;;23.70;56.30;;;;;;5065612;28;20368;-55
2023/07/08 01:04:07;;;;;;;;;;;23.70;56.30;;;;;;5064469;28;19913;-54
2023/07/08 01:06:34;;;;;;;;;;;23.70;56.30;;;;;;5050348;28;20266;-53
2023/07/08 01:09:02;;;;;;;;;;;23.70;56.40;;;;;;5050580;28;19916;-55
2023/07/08 01:11:28;;;;;;;;;;;23.70;56.30;;;;;;5067962;28;19924;-55
2023/07/08 01:13:53;;;;;;;;;;;23.70;56.40;;;;;;5074789;28;19908;-54
2023/07/08 01:16:19;;;;;;;;;;;23.70;56.40;;;;;;5055983;28;19921;-54
2023/07/08 01:18:52;;;;;;;;;;;23.70;56.40;;;;;;5055619;28;20011;-54
2023/07/08 01:21:36;;;;;;;;;;;23.70;56.40;;;;;;5076324;28;19977;-54
2023/07/08 01:24:03;;;;;;;;;;;23.70;56.30;;;;;;5055440;28;19913;-55
2023/07/08 01:26:29;;;;;;;;;;;23.70;56.40;;;;;;5055044;28;20373;-55
2023/07/08 01:28:54;;;;;;;;;;;23.60;56.30;;;;;;5071710;28;19919;-55
2023/07/08 01:31:20;;;;;;;;;;;23.60;56.40;;;;;;5075729;28;19988;-55
2023/07/08 01:33:45;;;;;;;;;;;23.60;56.40;;;;;;5062943;28;20003;-54
2023/07/08 01:36:11;;;;;;;;;;;23.70;56.40;;;;;;5054811;28;19916;-55
2023/07/08 01:38:36;;;;;;;;;;;23.60;56.30;;;;;;5061549;28;19965;-54
2023/07/08 01:41:02;;;;;;;;;;;23.60;56.30;;;;;;5074274;28;20006;-54
2023/07/08 01:43:27;;;;;;;;;;;23.60;56.40;;;;;;5074245;28;19916;-54
2023/07/08 01:45:53;;;;;;;;;;;23.60;56.40;;;;;;5068669;28;19950;-54
2023/07/08 01:48:19;;;;;;;;;;;23.60;56.40;;;;;;5064497;28;19913;-54
2023/07/08 01:50:57;;;;;;;;;;;23.60;56.30;;;;;;5056909;28;19931;-55
2023/07/08 01:53:27;;;;;;;;;;;23.60;56.40;;;;;;5066629;28;19913;-55
2023/07/08 01:55:53;;;;;;;;;;;23.60;56.40;;;;;;5068968;28;19970;-54
2023/07/08 01:58:18;;;;;;;;;;;23.60;57.00;;;;;;5055755;28;19913;-54
2023/07/08 02:00:44;;;;;;;;;;;23.60;56.40;;;;;;5055228;28;19916;-54
2023/07/08 02:03:09;;;;;;;;;;;23.60;56.40;;;;;;5066082;28;20381;-54
2023/07/08 02:05:35;;;;;;;;;;;23.50;56.30;;;;;;5073414;28;19916;-55
2023/07/08 02:08:00;;;;;;;;;;;23.50;56.40;;;;;;5066563;28;19995;-52
2023/07/08 02:10:26;;;;;;;;;;;23.50;57.00;;;;;;5074791;28;19909;-53
2023/07/08 02:12:51;;;;;;;;;;;23.60;56.40;;;;;;5069442;28;20006;-52
2023/07/08 02:15:17;;;;;;;;;;;23.50;56.40;;;;;;5071125;28;19908;-53
2023/07/08 02:17:42;;;;;;;;;;;23.50;56.40;;;;;;5073825;28;19916;-53
2023/07/08 02:20:08;;;;;;;;;;;23.50;56.40;;;;;;5060235;28;19967;-53
2023/07/08 02:22:34;;;;;;;;;;;23.50;56.40;;;;;;5073211;28;19908;-53
2023/07/08 02:24:59;;;;;;;;;;;23.50;56.40;;;;;;5067060;28;19912;-53
2023/07/08 02:27:25;;;;;;;;;;;23.50;56.40;;;;;;5054765;28;19920;-53
2023/07/08 02:29:50;;;;;;;;;;;23.50;56.40;;;;;;5054736;28;19913;-53
2023/07/08 02:32:15;;;;;;;;;;;23.50;56.40;;;;;;5054360;28;20372;-53
2023/07/08 02:34:41;;;;;;;;;;;23.50;56.40;;;;;;5054757;28;20464;-53
2023/07/08 02:37:07;;;;;;;;;;;23.50;56.40;;;;;;5067370;28;20466;-52
2023/07/08 02:39:32;;;;;;;;;;;23.50;56.40;;;;;;5074241;28;19967;-53
2023/07/08 02:41:58;;;;;;;;;;;23.50;56.40;;;;;;5070843;28;20391;-53
2023/07/08 02:44:23;;;;;;;;;;;23.50;56.40;;;;;;5072182;28;20368;-53
2023/07/08 02:46:49;;;;;;;;;;;23.50;56.40;;;;;;5072236;28;20266;-53
2023/07/08 02:49:14;;;;;;;;;;;23.50;56.40;;;;;;5062469;28;19916;-53
2023/07/08 02:51:39;;;;;;;;;;;23.50;56.30;;;;;;5073813;28;19912;-52
2023/07/08 02:54:05;;;;;;;;;;;23.40;56.20;;;;;;5061559;28;19916;-54
2023/07/08 02:56:30;;;;;;;;;;;23.40;56.20;;;;;;5074758;28;19966;-53
2023/07/08 02:58:56;;;;;;;;;;;23.40;56.20;;;;;;5071463;28;19912;-54
2023/07/08 03:01:23;;;;;;;;;;;23.40;56.10;;;;;;5053793;28;19963;-53
2023/07/08 03:03:48;;;;;;;;;;;23.40;56.20;;;;;;5064835;28;20059;-53
2023/07/08 03:06:14;;;;;;;;;;;23.40;56.20;;;;;;5066792;28;20406;-54
2023/07/08 03:08:39;;;;;;;;;;;23.40;56.20;;;;;;5073667;28;19910;-54
2023/07/08 03:11:05;;;;;;;;;;;23.40;56.20;;;;;;5067221;28;19909;-54
2023/07/08 03:13:31;;;;;;;;;;;23.40;56.20;;;;;;5070033;28;19920;-54
2023/07/08 03:15:57;;;;;;;;;;;23.40;56.20;;;;;;5073718;28;20003;-54
2023/07/08 03:18:23;;;;;;;;;;;23.40;56.20;;;;;;5059257;28;19912;-54
2023/07/08 03:20:49;;;;;;;;;;;23.40;56.20;;;;;;5073879;28;19908;-55
2023/07/08 03:23:14;;;;;;;;;;;23.40;56.10;;;;;;5065908;28;20011;-54
2023/07/08 03:25:40;;;;;;;;;;;23.40;56.10;;;;;;5072331;28;19924;-54
2023/07/08 03:28:06;;;;;;;;;;;23.40;56.00;;;;;;5066642;28;19917;-54
2023/07/08 03:30:32;;;;;;;;;;;23.40;56.10;;;;;;5067318;28;20001;-54
2023/07/08 03:32:57;;;;;;;;;;;23.40;56.00;;;;;;5053296;28;19952;-53
2023/07/08 03:35:23;;;;;;;;;;;23.40;55.90;;;;;;5064322;28;19985;-54
2023/07/08 03:37:48;;;;;;;;;;;23.40;56.00;;;;;;5072293;28;19913;-54
2023/07/08 03:40:14;;;;;;;;;;;23.40;56.00;;;;;;5063870;28;20413;-54
2023/07/08 03:42:39;;;;;;;;;;;23.40;56.10;;;;;;5068865;28;19920;-54
2023/07/08 03:45:05;;;;;;;;;;;23.40;55.90;;;;;;5070737;28;19916;-54
2023/07/08 03:47:30;;;;;;;;;;;23.40;55.90;;;;;;5068840;28;19962;-54
2023/07/08 03:49:56;;;;;;;;;;;23.40;55.80;;;;;;5073122;28;19912;-54
2023/07/08 03:52:21;;;;;;;;;;;23.40;55.80;;;;;;5061415;28;20269;-54
2023/07/08 03:54:47;;;;;;;;;;;23.30;55.80;;;;;;5052671;28;19912;-54
2023/07/08 03:57:12;;;;;;;;;;;23.40;55.80;;;;;;5064187;28;19991;-54
2023/07/08 03:59:38;;;;;;;;;;;23.30;55.60;;;;;;5072816;28;19920;-54
2023/07/08 04:02:03;;;;;;;;;;;23.30;55.70;;;;;;5072842;28;19939;-54
2023/07/08 04:04:29;;;;;;;;;;;23.30;55.60;;;;;;5054475;28;19991;-54
2023/07/08 04:06:54;;;;;;;;;;;23.30;55.70;;;;;;5052475;28;19916;-54
2023/07/08 04:09:20;;;;;;;;;;;23.30;55.60;;;;;;5053187;28;20383;-54
2023/07/08 04:11:45;;;;;;;;;;;23.30;55.70;;;;;;5053139;28;19921;-54
2023/07/08 04:14:11;;;;;;;;;;;23.30;55.60;;;;;;5053846;28;20006;-53
2023/07/08 04:16:45;;;;;;;;;;;23.30;55.60;;;;;;5061430;28;19957;-54
2023/07/08 04:19:14;;;;;;;;;;;23.30;55.70;;;;;;5072607;28;20371;-54
2023/07/08 04:21:39;;;;;;;;;;;23.30;55.60;;;;;;5055688;28;19909;-54
2023/07/08 04:24:05;;;;;;;;;;;23.30;55.50;;;;;;5054649;28;19919;-54
2023/07/08 04:26:30;;;;;;;;;;;23.30;55.50;;;;;;5065141;28;20361;-54
2023/07/08 04:28:56;;;;;;;;;;;23.40;55.50;;;;;;5071438;28;19920;-54
2023/07/08 04:31:21;;;;;;;;;;;23.30;55.50;;;;;;5069700;28;19977;-54
2023/07/08 04:33:47;;;;;;;;;;;23.30;55.40;;;;;;5071235;28;19935;-54
2023/07/08 04:36:12;;;;;;;;;;;23.40;55.60;;;;;;5067289;28;19932;-54
2023/07/08 04:38:38;;;;;;;;;;;23.30;55.40;;;;;;5050181;28;19923;-54
2023/07/08 04:41:03;;;;;;;;;;;23.30;55.30;;;;;;5052557;28;19909;-54
2023/07/08 04:43:29;;;;;;;;;;;23.30;55.80;;;;;;5052230;28;19916;-54
2023/07/08 04:45:54;;;;;;;;;;;23.40;55.40;;;;;;5051951;28;19925;-54
2023/07/08 04:48:21;;;;;;;;;;;23.30;55.30;;;;;;5054511;28;19916;-54
2023/07/08 04:50:48;;;;;;;;;;;23.30;55.20;;;;;;5066305;28;20364;-54
2023/07/08 04:53:14;;;;;;;;;;;23.30;55.30;;;;;;5059978;28;20381;-54
2023/07/08 04:55:40;;;;;;;;;;;23.30;55.30;;;;;;5058736;28;19920;-54
2023/07/08 04:58:05;;;;;;;;;;;23.30;55.30;;;;;;5069487;28;19959;-54
2023/07/08 05:00:31;;;;;;;;;;;23.30;55.40;;;;;;5065361;28;19961;-54
2023/07/08 05:02:56;;;;;;;;;;;23.30;55.40;;;;;;5065810;28;19920;-54
2023/07/08 05:05:22;;;;;;;;;;;23.30;55.40;;;;;;5070434;28;19921;-54
2023/07/08 05:07:49;;;;;;;;;;;23.30;55.40;;;;;;5063862;28;20342;-54
2023/07/08 05:10:14;;;;;;;;;;;23.30;55.40;;;;;;5070575;28;19912;-54
2023/07/08 05:12:40;;;;;;;;;;;23.30;55.40;;;;;;5060198;28;20476;-54
2023/07/08 05:15:06;;;;;;;;;;;23.30;55.30;;;;;;5052292;28;19920;-54
2023/07/08 05:17:31;;;;;;;;;;;23.30;55.30;;;;;;5050783;28;19920;-54
2023/07/08 05:20:00;;;;;;;;;;;23.30;55.30;;;;;;5068128;28;19944;-54
2023/07/08 05:22:26;;;;;;;;;;;23.30;55.40;;;;;;5071501;28;19947;-54
2023/07/08 05:24:52;;;;;;;;;;;23.30;55.30;;;;;;5064124;28;19974;-54
2023/07/08 05:27:18;;;;;;;;;;;23.30;55.30;;;;;;5052625;28;19935;-54
2023/07/08 05:29:45;;;;;;;;;;;23.30;55.30;;;;;;5054519;28;20273;-54
2023/07/08 05:32:11;;;;;;;;;;;23.30;55.20;;;;;;5051684;28;20195;-54
2023/07/08 05:34:36;;;;;;;;;;;23.30;55.20;;;;;;5062256;28;19957;-54
2023/07/08 05:37:01;;;;;;;;;;;23.30;55.20;;;;;;5070238;28;19951;-54
2023/07/08 05:39:27;;;;;;;;;;;23.30;55.20;;;;;;5071333;28;19908;-54
2023/07/08 05:41:52;;;;;;;;;;;23.30;55.20;;;;;;5055871;28;19913;-54
2023/07/08 05:44:18;;;;;;;;;;;23.30;55.20;;;;;;5051652;28;19913;-54
2023/07/08 05:46:43;;;;;;;;;;;23.30;55.20;;;;;;5050868;28;19921;-54
2023/07/08 05:49:09;;;;;;;;;;;23.30;55.20;;;;;;5071597;28;19996;-54
2023/07/08 05:51:35;;;;;;;;;;;23.30;55.10;;;;;;5063755;28;20002;-55
2023/07/08 05:54:01;;;;;;;;;;;23.40;55.20;;;;;;5063003;28;19917;-54
2023/07/08 05:56:26;;;;;;;;;;;23.30;55.10;;;;;;5057842;28;20008;-54
2023/07/08 05:58:52;;;;;;;;;;;23.30;55.00;;;;;;5057746;28;19974;-54
2023/07/08 06:01:17;;;;;;;;;;;23.30;55.00;;;;;;5063561;28;19936;-54
2023/07/08 06:03:43;;;;;;;;;;;23.30;54.90;;;;;;5069087;28;19966;-54
2023/07/08 06:06:09;;;;;;;;;;;23.30;54.90;;;;;;5072267;28;19974;-53
2023/07/08 06:08:34;;;;;;;;;;;23.30;54.90;;;;;;5074657;28;19955;-54
2023/07/08 06:10:59;;;;;;;;;;;23.30;55.00;;;;;;5059594;28;19920;-55
2023/07/08 06:13:25;;;;;;;;;;;23.30;55.00;;;;;;5073221;28;19924;-54
2023/07/08 06:15:50;;;;;;;;;;;23.30;54.90;;;;;;5068515;28;19962;-54
2023/07/08 06:18:16;;;;;;;;;;;23.30;54.90;;;;;;5073682;28;19958;-54
2023/07/08 06:20:41;;;;;;;;;;;23.40;55.00;;;;;;5059629;28;19973;-54
2023/07/08 06:23:07;;;;;;;;;;;23.30;54.90;;;;;;5068806;28;19992;-54
2023/07/08 06:25:32;;;;;;;;;;;23.40;55.00;;;;;;5074137;28;19955;-54
2023/07/08 06:27:58;;;;;;;;;;;23.40;55.00;;;;;;5062941;28;19912;-54
2023/07/08 06:30:23;;;;;;;;;;;23.40;54.90;;;;;;5064676;28;19913;-54
2023/07/08 06:32:49;;;;;;;;;;;23.40;54.80;;;;;;5053344;28;19916;-54
2023/07/08 06:35:14;;;;;;;;;;;23.40;54.90;;;;;;5054771;28;19919;-54
2023/07/08 06:37:39;;;;;;;;;;;23.40;54.80;;;;;;5053680;28;19993;-54
2023/07/08 06:40:05;;;;;;;;;;;23.40;54.80;;;;;;5055405;28;19923;-54
2023/07/08 06:42:31;;;;;;;;;;;23.40;54.80;;;;;;5067538;28;19947;-53
2023/07/08 06:44:56;;;;;;;;;;;23.40;54.80;;;;;;5054149;28;20071;-54
2023/07/08 06:47:22;;;;;;;;;;;23.40;55.50;;;;;;5056986;28;19912;-53
2023/07/08 06:49:47;;;;;;;;;;;23.40;54.80;;;;;;5054261;28;19920;-54
2023/07/08 06:52:13;;;;;;;;;;;23.40;54.80;;;;;;5053090;28;20353;-54
2023/07/08 06:54:38;;;;;;;;;;;23.40;54.80;;;;;;5059323;28;19917;-54
2023/07/08 06:57:04;;;;;;;;;;;23.40;54.70;;;;;;5072703;28;19913;-53
2023/07/08 06:59:29;;;;;;;;;;;23.40;54.70;;;;;;5067910;28;19917;-54
2023/07/08 07:01:55;;;;;;;;;;;23.40;54.70;;;;;;5066746;28;20377;-54
2023/07/08 07:04:20;;;;;;;;;;;23.40;54.60;;;;;;5068926;28;19917;-54
2023/07/08 07:06:46;;;;;;;;;;;23.40;54.60;;;;;;5058650;28;19916;-54
2023/07/08 07:09:11;;;;;;;;;;;23.40;54.60;;;;;;5073160;28;19999;-54
2023/07/08 07:11:37;;;;;;;;;;;23.40;54.60;;;;;;5056517;28;20388;-54
2023/07/08 07:14:02;;;;;;;;;;;23.40;54.50;;;;;;5053407;28;20293;-54
2023/07/08 07:16:28;;;;;;;;;;;23.40;54.50;;;;;;5057350;28;20327;-53
2023/07/08 07:18:53;;;;;;;;;;;23.40;54.50;;;;;;5066174;28;19920;-54
2023/07/08 07:21:18;;;;;;;;;;;23.50;54.40;;;;;;5073242;28;20003;-54
2023/07/08 07:23:44;;;;;;;;;;;23.50;54.40;;;;;;5066290;28;19935;-54
2023/07/08 07:26:09;;;;;;;;;;;23.40;54.30;;;;;;5070564;28;19912;-54
2023/07/08 07:28:35;;;;;;;;;;;23.40;53.90;;;;;;5068466;28;19917;-53
2023/07/08 07:31:00;;;;;;;;;;;23.40;54.20;;;;;;5068469;28;19912;-54
2023/07/08 07:33:26;;;;;;;;;;;23.40;53.90;;;;;;5073375;28;20438;-54
2023/07/08 07:35:51;;;;;;;;;;;23.40;54.10;;;;;;5066498;28;19921;-53
2023/07/08 07:38:17;;;;;;;;;;;23.40;53.90;;;;;;5068274;28;19965;-55
2023/07/08 07:40:42;;;;;;;;;;;23.50;53.90;;;;;;5054611;28;19999;-54
2023/07/08 07:43:08;;;;;;;;;;;23.50;53.80;;;;;;5053167;28;19938;-54
2023/07/08 07:45:33;;;;;;;;;;;23.50;53.80;;;;;;5053053;28;20373;-53
2023/07/08 07:47:59;;;;;;;;;;;23.50;53.70;;;;;;5058447;28;20354;-54
2023/07/08 07:50:24;;;;;;;;;;;23.50;53.90;;;;;;5056940;28;19917;-54
2023/07/08 07:52:49;;;;;;;;;;;23.50;54.60;;;;;;5052932;28;19921;-54
2023/07/08 07:55:15;;;;;;;;;;;23.50;54.20;;;;;;5072058;28;20018;-54
2023/07/08 07:57:41;;;;;;;;;;;23.60;54.10;;;;;;5069459;28;19921;-54
2023/07/08 08:00:08;;;;;;;;;;;23.60;53.80;;;;;;5057661;28;19961;-54
2023/07/08 08:02:34;;;;;;;;;;;23.60;54.10;;;;;;5052888;28;19913;-55
2023/07/08 08:04:59;;;;;;;;;;;23.60;54.20;;;;;;5057676;28;19919;-54
2023/07/08 08:07:25;;;;;;;;;;;23.70;54.00;;;;;;5060238;28;19938;-53
2023/07/08 08:09:50;;;;;;;;;;;23.70;53.80;;;;;;5051342;28;19983;-54
2023/07/08 08:12:15;;;;;;;;;;;23.70;53.80;;;;;;5057658;28;19925;-54
2023/07/08 08:14:41;;;;;;;;;;;23.70;54.10;;;;;;5051988;28;19939;-54
2023/07/08 08:17:06;;;;;;;;;;;23.70;54.10;;;;;;5071004;28;19983;-54
2023/07/08 08:19:32;;;;;;;;;;;23.80;54.20;;;;;;5071815;28;19909;-54
2023/07/08 08:21:57;;;;;;;;;;;23.80;53.70;;;;;;5057410;28;20383;-54
2023/07/08 08:24:23;;;;;;;;;;;23.80;53.80;;;;;;5052871;28;19928;-53
2023/07/08 08:26:48;;;;;;;;;;;23.80;53.60;;;;;;5065439;28;19913;-55
2023/07/08 08:29:14;;;;;;;;;;;23.90;53.80;;;;;;5072407;28;20357;-54
2023/07/08 08:31:39;;;;;;;;;;;23.90;54.00;;;;;;5063644;28;19913;-54
2023/07/08 08:34:04;;;;;;;;;;;23.90;54.00;;;;;;5053455;28;19951;-54
2023/07/08 08:36:30;;;;;;;;;;;23.90;54.10;;;;;;5052067;28;20528;-54
2023/07/08 08:38:56;;;;;;;;;;;23.90;53.90;;;;;;5059550;28;20285;-54
2023/07/08 08:41:28;;;;;;;;;;;23.90;53.40;;;;;;5065548;28;20289;-54
2023/07/08 08:43:54;;;;;;;;;;;24.00;53.30;;;;;;5060769;28;19921;-54
2023/07/08 08:46:19;;;;;;;;;;;24.00;53.50;;;;;;5068332;28;20408;-54
2023/07/08 08:48:52;;;;;;;;;;;24.00;53.70;;;;;;5072262;28;20380;-54
2023/07/08 08:51:17;;;;;;;;;;;24.00;54.10;;;;;;5053338;28;19938;-55
2023/07/08 08:53:43;;;;;;;;;;;24.00;54.10;;;;;;5054063;28;20381;-54
2023/07/08 08:56:28;;;;;;;;;;;24.00;54.00;;;;;;5058099;28;20289;-54
2023/07/08 08:59:02;;;;;;;;;;;24.10;53.90;;;;;;5069546;28;19913;-54
2023/07/08 09:01:28;;;;;;;;;;;24.10;53.90;;;;;;5059028;28;19923;-54
2023/07/08 09:03:56;;;;;;;;;;;24.10;54.70;;;;;;5051982;28;20357;-54
2023/07/08 09:06:25;;;;;;;;;;;24.10;54.00;;;;;;5051683;28;19967;-54
2023/07/08 09:08:51;;;;;;;;;;;24.20;53.90;;;;;;5065721;28;19917;-54
2023/07/08 09:11:27;;;;;;;;;;;24.20;53.90;;;;;;5059444;28;19917;-53
2023/07/08 09:13:53;;;;;;;;;;;24.20;53.70;;;;;;5053846;28;19916;-53
2023/07/08 09:16:21;;;;;;;;;;;24.20;53.80;;;;;;5069420;28;20383;-54
2023/07/08 09:18:56;;;;;;;;;;;24.30;53.30;;;;;;5055148;28;19922;-53
2023/07/08 09:21:24;;;;;;;;;;;24.30;53.40;;;;;;5070295;28;19961;-54
2023/07/08 09:23:50;;;;;;;;;;;24.30;53.70;;;;;;5055495;28;20323;-54
2023/07/08 09:26:19;;;;;;;;;;;24.30;53.80;;;;;;5066735;28;19912;-54
2023/07/08 09:28:44;;;;;;;;;;;24.40;53.90;;;;;;5069989;28;20280;-54
2023/07/08 09:31:31;;;;;;;;;;;24.30;53.90;;;;;;5058782;28;19912;-54
2023/07/08 09:34:06;;;;;;;;;;;24.40;53.60;;;;;;5055512;28;19917;-54
2023/07/08 09:36:31;;;;;;;;;;;24.40;53.60;;;;;;5058030;28;19916;-54
2023/07/08 09:38:57;;;;;;;;;;;24.40;53.60;;;;;;5075329;28;20266;-54
2023/07/08 09:41:33;;;;;;;;;;;24.50;53.20;;;;;;5068196;28;20343;-54
2023/07/08 09:44:05;;;;;;;;;;;24.60;53.70;;;;;;5056398;28;19909;-54
2023/07/08 09:46:35;;;;;;;;;;;24.50;53.40;;;;;;5058898;28;20388;-53
2023/07/08 09:49:01;;;;;;;;;;;24.50;53.40;;;;;;5068658;28;19963;-54
2023/07/08 09:51:27;;;;;;;;;;;24.60;53.40;;;;;;5072705;28;19958;-54
2023/07/08 09:53:53;;;;;;;;;;;24.60;53.60;;;;;;5062372;28;20382;-54
2023/07/08 09:56:18;;;;;;;;;;;24.60;53.70;;;;;;5055384;28;20369;-54
2023/07/08 09:58:47;;;;;;;;;;;24.60;53.70;;;;;;5055881;28;19948;-54
2023/07/08 10:01:13;;;;;;;;;;;24.70;53.70;;;;;;5069606;28;19995;-54
2023/07/08 10:03:39;;;;;;;;;;;24.70;53.50;;;;;;5053952;28;19909;-54
2023/07/08 10:06:14;;;;;;;;;;;24.70;54.30;;;;;;5066196;28;19912;-54
2023/07/08 10:08:42;;;;;;;;;;;24.70;53.60;;;;;;5060861;28;19920;-54
2023/07/08 10:11:20;;;;;;;;;;;24.70;53.50;;;;;;5063931;28;20012;-53
2023/07/08 10:13:49;;;;;;;;;;;24.70;53.50;;;;;;5055110;28;19928;-54
2023/07/08 10:16:15;;;;;;;;;;;24.80;53.60;;;;;;5055595;28;20407;-54
2023/07/08 10:18:41;;;;;;;;;;;24.80;52.10;;;;;;5055129;28;19956;-54
2023/07/08 10:21:15;;;;;;;;;;;24.90;52.80;;;;;;5054505;28;20380;-54
2023/07/08 10:24:00;;;;;;;;;;;24.90;52.80;;;;;;5054747;28;19920;-54
2023/07/08 10:26:27;;;;;;;;;;;24.90;53.10;;;;;;5064611;28;19921;-54
2023/07/08 10:29:06;;;;;;;;;;;25.00;52.50;;;;;;5060204;28;19913;-54
2023/07/08 10:31:38;;;;;;;;;;;25.00;52.90;;;;;;5055533;28;19920;-53
2023/07/08 10:34:07;;;;;;;;;;;25.10;53.10;;;;;;5063247;28;19967;-54
2023/07/08 10:36:41;;;;;;;;;;;25.10;52.70;;;;;;5059403;28;19935;-53
2023/07/08 10:39:06;;;;;;;;;;;25.10;52.80;;;;;;5069812;28;20003;-54
2023/07/08 10:41:35;;;;;;;;;;;25.10;53.10;;;;;;5071362;28;19908;-54
2023/07/08 10:44:04;;;;;;;;;;;25.10;52.60;;;;;;5067529;28;19913;-54
2023/07/08 10:46:32;;;;;;;;;;;25.20;51.60;;;;;;5064040;28;19921;-54
2023/07/08 10:49:01;;;;;;;;;;;25.40;51.50;;;;;;5072576;28;19919;-54
2023/07/08 10:51:27;;;;;;;;;;;25.30;52.10;;;;;;5063603;28;19913;-55
2023/07/08 10:53:58;;;;;;;;;;;25.30;51.80;;;;;;5053858;28;19923;-54
2023/07/08 10:56:28;;;;;;;;;;;25.40;51.60;;;;;;5059840;28;19998;-54
2023/07/08 10:58:56;;;;;;;;;;;25.30;52.20;;;;;;5053792;28;19909;-54
2023/07/08 11:01:26;;;;;;;;;;;25.30;52.60;;;;;;5054115;28;19908;-54
2023/07/08 11:03:55;;;;;;;;;;;25.30;52.50;;;;;;5060882;28;19916;-54
2023/07/08 11:06:22;;;;;;;;;;;25.30;52.40;;;;;;5060135;28;20280;-54
2023/07/08 11:08:53;;;;;;;;;;;25.40;52.30;;;;;;5057422;28;19912;-54
2023/07/08 11:11:24;;;;;;;;;;;25.50;51.80;;;;;;5073503;28;19908;-55
2023/07/08 11:13:52;;;;;;;;;;;25.40;51.70;;;;;;5056353;28;20417;-54
2023/07/08 11:16:35;;;;;;;;;;;25.50;51.80;;;;;;5062241;28;19916;-54
2023/07/08 11:19:15;;;;;;;;;;;25.60;51.30;;;;;;5070585;28;19962;-55
2023/07/08 11:21:48;;;;;;;;;;;25.60;50.70;;;;;;5059193;28;19917;-53
2023/07/08 11:24:16;;;;;;;;;;;25.70;50.10;;;;;;5072152;28;19912;-53
2023/07/08 11:26:52;;;;;;;;;;;25.80;50.70;;;;;;5066771;28;19924;-54
2023/07/08 11:29:22;;;;;;;;;;;25.60;51.30;;;;;;5072231;28;19944;-54
2023/07/08 11:31:47;;;;;;;;;;;25.70;51.20;;;;;;5061757;28;20377;-54
2023/07/08 11:34:13;;;;;;;;;;;25.70;51.10;;;;;;5062348;28;19918;-54
2023/07/08 11:36:38;;;;;;;;;;;25.70;51.20;;;;;;5064640;28;19960;-55
2023/07/08 11:39:04;;;;;;;;;;;25.70;51.60;;;;;;5071913;28;19908;-54
2023/07/08 11:41:31;;;;;;;;;;;25.60;51.80;;;;;;5069674;28;19916;-54
2023/07/08 11:43:57;;;;;;;;;;;25.60;52.00;;;;;;5056711;28;19970;-55
2023/07/08 11:46:25;;;;;;;;;;;25.70;51.60;;;;;;5051883;28;19920;-54
2023/07/08 11:48:51;;;;;;;;;;;25.80;50.90;;;;;;5054083;28;19923;-55
2023/07/08 11:51:37;;;;;;;;;;;25.80;51.20;;;;;;5071653;28;19978;-54
2023/07/08 11:54:21;;;;;;;;;;;25.70;51.40;;;;;;5064983;28;19947;-54
2023/07/08 11:56:57;;;;;;;;;;;25.70;51.40;;;;;;5070424;28;19912;-55
2023/07/08 11:59:23;;;;;;;;;;;25.80;51.10;;;;;;5055883;28;19913;-55
2023/07/08 12:02:00;;;;;;;;;;;25.90;50.80;;;;;;5051743;28;20389;-55
2023/07/08 12:04:27;;;;;;;;;;;25.90;50.30;;;;;;5053148;28;19917;-53
2023/07/08 12:06:58;;;;;;;;;;;26.00;49.60;;;;;;5051499;28;20011;-53
2023/07/08 12:09:27;;;;;;;;;;;26.00;49.90;;;;;;5057992;28;19916;-53
2023/07/08 12:11:55;;;;;;;;;;;26.10;49.70;;;;;;5055457;28;19912;-53
2023/07/08 12:14:20;;;;;;;;;;;26.10;50.40;;;;;;5052775;28;19936;-54
2023/07/08 12:16:46;;;;;;;;;;;26.00;50.90;;;;;;5067156;28;20326;-53
2023/07/08 12:19:13;;;;;;;;;;;26.00;50.90;;;;;;5051818;28;20262;-53
2023/07/08 12:21:39;;;;;;;;;;;26.00;51.00;;;;;;5050961;28;19916;-54
2023/07/08 12:24:04;;;;;;;;;;;26.00;50.90;;;;;;5053961;28;19913;-53
2023/07/08 12:26:31;;;;;;;;;;;26.00;50.30;;;;;;5050481;28;19920;-54
2023/07/08 12:28:56;;;;;;;;;;;26.00;50.60;;;;;;5057723;28;19916;-54
2023/07/08 12:31:22;;;;;;;;;;;26.00;50.80;;;;;;5052529;28;20434;-54
2023/07/08 12:33:47;;;;;;;;;;;26.10;50.30;;;;;;5065240;28;20399;-53
2023/07/08 12:36:15;;;;;;;;;;;26.20;50.50;;;;;;5066239;28;20292;-53
2023/07/08 12:38:41;;;;;;;;;;;26.20;49.30;;;;;;5068512;28;21659;-53
2023/07/08 12:41:10;;;;;;;;;;;26.30;49.00;;;;;;5052420;28;19928;-53
2023/07/08 12:43:35;;;;;;;;;;;26.30;49.50;;;;;;5050986;28;19913;-54
2023/07/08 12:46:03;;;;;;;;;;;26.30;50.60;;;;;;5052137;28;19925;-53
2023/07/08 12:48:35;;;;;;;;;;;26.20;50.30;;;;;;5069820;28;19915;-54
2023/07/08 12:51:00;;;;;;;;;;;26.20;50.60;;;;;;5067497;28;20422;-53
2023/07/08 12:53:26;;;;;;;;;;;26.20;50.70;;;;;;5059467;28;19920;-53
2023/07/08 12:55:52;;;;;;;;;;;26.30;50.70;;;;;;5070674;28;20389;-54
2023/07/08 12:58:28;;;;;;;;;;;26.30;50.50;;;;;;5068596;28;19913;-53
2023/07/08 13:00:54;;;;;;;;;;;26.40;49.10;;;;;;5072523;28;20377;-53
2023/07/08 13:03:21;;;;;;;;;;;26.50;49.20;;;;;;5055495;28;20007;-53
2023/07/08 13:05:47;;;;;;;;;;;26.40;49.90;;;;;;5061533;28;19913;-53
2023/07/08 13:08:13;;;;;;;;;;;26.40;49.50;;;;;;5068295;28;19912;-53
2023/07/08 13:10:38;;;;;;;;;;;26.50;49.00;;;;;;5068014;28;19981;-52
2023/07/08 13:13:04;;;;;;;;;;;26.60;48.90;;;;;;5071778;28;20364;-54
2023/07/08 13:15:37;;;;;;;;;;;26.50;49.30;;;;;;5061994;28;19966;-54
2023/07/08 13:18:02;;;;;;;;;;;26.60;49.00;;;;;;5052018;28;19913;-53
2023/07/08 13:20:28;;;;;;;;;;;26.50;48.40;;;;;;5050842;28;19920;-52
2023/07/08 13:23:02;;;;;;;;;;;26.60;48.70;;;;;;5058562;28;20437;-53
2023/07/08 13:25:29;;;;;;;;;;;26.60;49.40;;;;;;5070825;28;20373;-54
2023/07/08 13:27:55;;;;;;;;;;;26.60;49.30;;;;;;5057821;28;20015;-53
2023/07/08 13:30:20;;;;;;;;;;;26.60;49.40;;;;;;5071959;28;19947;-53
2023/07/08 13:32:56;;;;;;;;;;;26.50;49.50;;;;;;5066614;28;20401;-53
2023/07/08 13:35:21;;;;;;;;;;;26.60;49.50;;;;;;5071929;28;20396;-53
2023/07/08 13:37:49;;;;;;;;;;;26.50;49.50;;;;;;5058795;28;21276;-53
2023/07/08 13:40:15;;;;;;;;;;;26.50;49.50;;;;;;5067201;28;19912;-53
2023/07/08 13:42:46;;;;;;;;;;;26.50;50.20;;;;;;5051554;28;20427;-53
2023/07/08 13:45:15;;;;;;;;;;;26.50;49.80;;;;;;5051206;28;19917;-53
2023/07/08 13:47:41;;;;;;;;;;;26.50;49.50;;;;;;5051588;28;20262;-53
2023/07/08 13:50:17;;;;;;;;;;;26.60;49.60;;;;;;5049581;28;19920;-53
2023/07/08 13:52:43;;;;;;;;;;;26.60;49.60;;;;;;5062598;28;19916;-53
2023/07/08 13:55:10;;;;;;;;;;;26.60;49.40;;;;;;5050398;28;20296;-53
2023/07/08 13:57:37;;;;;;;;;;;26.60;49.60;;;;;;5067072;28;20380;-52
2023/07/08 14:00:03;;;;;;;;;;;26.60;49.30;;;;;;5054705;28;19917;-54
2023/07/08 14:02:29;;;;;;;;;;;26.70;49.50;;;;;;5050529;28;19956;-53
2023/07/08 14:04:56;;;;;;;;;;;26.70;49.20;;;;;;5054736;28;20387;-53
2023/07/08 14:07:23;;;;;;;;;;;26.80;49.00;;;;;;5060518;28;19913;-53
2023/07/08 14:09:48;;;;;;;;;;;26.80;49.00;;;;;;5071114;28;20460;-54
2023/07/08 14:12:14;;;;;;;;;;;26.80;48.90;;;;;;5068437;28;20012;-52
2023/07/08 14:14:39;;;;;;;;;;;26.80;48.60;;;;;;5051295;28;19912;-53